sensor_id;sensor_type;location;lat;lon;timestamp;pressure;altitude;pressure_sealevel;temperature;humidity
58769;BME280;44536;47.474;19.056;2022-11-15T00:01:19;101022.53;;;4.86;100.00
58769;BME280;44536;47.474;19.056;2022-11-15T00:04:39;101019.78;;;4.89;100.00
58769;BME280;44536;47.474;19.056;2022-11-15T00:07:59;101011.56;;;4.97;100.00
58769;BME280;44536;47.474;19.056;2022-11-15T00:11:20;101017.75;;;4.96;100.00
58769;BME280;44536;47.474;19.056;2022-11-15T00:14:41;101015.91;;;4.98;100.00
58769;BME280;44536;47.474;19.056;2022-11-15T00:18:04;101026.50;;;4.96;100.00
58769;BME280;44536;47.474;19.056;2022-11-15T00:21:25;101020.97;;;5.03;100.00
58769;BME280;44536;47.474;19.056;2022-11-15T00:24:45;101019.94;;;5.07;100.00
58769;BME280;44536;47.474;19.056;2022-11-15T00:28:05;101019.06;;;4.86;100.00
58769;BME280;44536;47.474;19.056;2022-11-15T00:31:26;101020.63;;;4.90;100.00
58769;BME280;44536;47.474;19.056;2022-11-15T00:34:47;101008.09;;;5.17;100.00
58769;BME280;44536;47.474;19.056;2022-11-15T00:38:07;101004.81;;;5.12;100.00
58769;BME280;44536;47.474;19.056;2022-11-15T00:41:27;101002.44;;;5.06;100.00
58769;BME280;44536;47.474;19.056;2022-11-15T00:44:48;100994.81;;;4.99;100.00
58769;BME280;44536;47.474;19.056;2022-11-15T00:48:09;100995.34;;;4.87;100.00
58769;BME280;44536;47.474;19.056;2022-11-15T00:51:29;100985.69;;;4.88;100.00
58769;BME280;44536;47.474;19.056;2022-11-15T00:54:50;100985.81;;;4.85;100.00
58769;BME280;44536;47.474;19.056;2022-11-15T00:58:11;100990.56;;;4.97;100.00
58769;BME280;44536;47.474;19.056;2022-11-15T01:01:31;100995.00;;;4.95;100.00
58769;BME280;44536;47.474;19.056;2022-11-15T01:04:51;100999.28;;;4.97;100.00
58769;BME280;44536;47.474;19.056;2022-11-15T01:08:12;100989.37;;;5.04;100.00
58769;BME280;44536;47.474;19.056;2022-11-15T01:11:33;100986.75;;;5.04;100.00
58769;BME280;44536;47.474;19.056;2022-11-15T01:14:54;100983.78;;;5.12;100.00
58769;BME280;44536;47.474;19.056;2022-11-15T01:18:15;100978.78;;;5.06;100.00
58769;BME280;44536;47.474;19.056;2022-11-15T01:21:35;100981.09;;;5.13;100.00
58769;BME280;44536;47.474;19.056;2022-11-15T01:24:55;100966.53;;;5.25;100.00
58769;BME280;44536;47.474;19.056;2022-11-15T01:28:15;100958.41;;;5.11;100.00
58769;BME280;44536;47.474;19.056;2022-11-15T01:31:36;100954.22;;;5.07;100.00
58769;BME280;44536;47.474;19.056;2022-11-15T01:34:56;100958.75;;;5.03;100.00
58769;BME280;44536;47.474;19.056;2022-11-15T01:38:17;100960.34;;;5.26;100.00
58769;BME280;44536;47.474;19.056;2022-11-15T01:41:37;100956.78;;;5.27;100.00
58769;BME280;44536;47.474;19.056;2022-11-15T01:44:58;100954.81;;;5.13;100.00
58769;BME280;44536;47.474;19.056;2022-11-15T01:48:18;100957.00;;;5.22;100.00
58769;BME280;44536;47.474;19.056;2022-11-15T01:51:38;100954.59;;;5.18;100.00
58769;BME280;44536;47.474;19.056;2022-11-15T01:58:19;100950.81;;;5.23;100.00
58769;BME280;44536;47.474;19.056;2022-11-15T02:01:40;100954.22;;;5.25;100.00
58769;BME280;44536;47.474;19.056;2022-11-15T02:05:01;100945.63;;;5.22;100.00
58769;BME280;44536;47.474;19.056;2022-11-15T02:08:22;100943.28;;;5.16;100.00
58769;BME280;44536;47.474;19.056;2022-11-15T02:11:42;100940.66;;;5.16;100.00
58769;BME280;44536;47.474;19.056;2022-11-15T02:15:04;100939.88;;;5.32;100.00
58769;BME280;44536;47.474;19.056;2022-11-15T02:18:28;100935.81;;;5.25;100.00
58769;BME280;44536;47.474;19.056;2022-11-15T02:22:37;100936.19;;;5.18;100.00
58769;BME280;44536;47.474;19.056;2022-11-15T02:25:39;100928.31;;;5.18;100.00
58769;BME280;44536;47.474;19.056;2022-11-15T02:29:02;100932.66;;;5.19;100.00
58769;BME280;44536;47.474;19.056;2022-11-15T02:32:40;100925.75;;;5.16;100.00
58769;BME280;44536;47.474;19.056;2022-11-15T02:36:05;100922.53;;;5.10;100.00
58769;BME280;44536;47.474;19.056;2022-11-15T02:39:46;100919.19;;;5.06;100.00
58769;BME280;44536;47.474;19.056;2022-11-15T02:43:13;100915.25;;;4.96;100.00
58769;BME280;44536;47.474;19.056;2022-11-15T02:47:00;100911.91;;;4.92;100.00
58769;BME280;44536;47.474;19.056;2022-11-15T02:50:35;100911.06;;;4.92;100.00
58769;BME280;44536;47.474;19.056;2022-11-15T02:53:56;100912.28;;;5.04;100.00
58769;BME280;44536;47.474;19.056;2022-11-15T02:57:16;100914.72;;;5.08;100.00
58769;BME280;44536;47.474;19.056;2022-11-15T03:00:41;100920.19;;;5.04;100.00
58769;BME280;44536;47.474;19.056;2022-11-15T03:14:34;100924.13;;;5.14;100.00
58769;BME280;44536;47.474;19.056;2022-11-15T03:18:07;100924.66;;;5.20;100.00
58769;BME280;44536;47.474;19.056;2022-11-15T03:21:33;100914.59;;;5.11;100.00
58769;BME280;44536;47.474;19.056;2022-11-15T03:24:56;100904.91;;;5.12;100.00
58769;BME280;44536;47.474;19.056;2022-11-15T03:28:25;100904.53;;;5.01;100.00
58769;BME280;44536;47.474;19.056;2022-11-15T03:31:50;100899.34;;;4.99;100.00
58769;BME280;44536;47.474;19.056;2022-11-15T03:35:12;100894.69;;;5.06;100.00
58769;BME280;44536;47.474;19.056;2022-11-15T03:38:34;100887.72;;;5.05;100.00
58769;BME280;44536;47.474;19.056;2022-11-15T03:45:44;100890.06;;;5.11;100.00
58769;BME280;44536;47.474;19.056;2022-11-15T03:49:12;100893.50;;;5.13;100.00
58769;BME280;44536;47.474;19.056;2022-11-15T03:52:34;100885.31;;;5.19;100.00
58769;BME280;44536;47.474;19.056;2022-11-15T03:55:55;100879.06;;;5.40;100.00
58769;BME280;44536;47.474;19.056;2022-11-15T03:59:15;100874.59;;;5.42;100.00
58769;BME280;44536;47.474;19.056;2022-11-15T04:02:35;100857.87;;;5.43;100.00
58769;BME280;44536;47.474;19.056;2022-11-15T04:05:56;100850.78;;;5.45;100.00
58769;BME280;44536;47.474;19.056;2022-11-15T04:09:16;100847.06;;;5.49;100.00
58769;BME280;44536;47.474;19.056;2022-11-15T04:12:37;100849.12;;;5.24;100.00
58769;BME280;44536;47.474;19.056;2022-11-15T04:15:59;100839.59;;;5.21;100.00
58769;BME280;44536;47.474;19.056;2022-11-15T04:19:20;100839.03;;;5.33;100.00
58769;BME280;44536;47.474;19.056;2022-11-15T04:23:00;100858.31;;;5.34;100.00
58769;BME280;44536;47.474;19.056;2022-11-15T04:26:39;100860.22;;;5.30;100.00
58769;BME280;44536;47.474;19.056;2022-11-15T04:29:59;100859.50;;;5.27;100.00
58769;BME280;44536;47.474;19.056;2022-11-15T04:33:21;100855.19;;;5.45;100.00
58769;BME280;44536;47.474;19.056;2022-11-15T04:36:41;100850.69;;;5.47;100.00
58769;BME280;44536;47.474;19.056;2022-11-15T04:40:21;100853.19;;;5.31;100.00
58769;BME280;44536;47.474;19.056;2022-11-15T04:43:41;100836.38;;;5.16;100.00
58769;BME280;44536;47.474;19.056;2022-11-15T04:47:01;100839.75;;;4.99;100.00
58769;BME280;44536;47.474;19.056;2022-11-15T04:50:22;100842.97;;;5.06;100.00
58769;BME280;44536;47.474;19.056;2022-11-15T04:53:42;100833.94;;;5.12;100.00
58769;BME280;44536;47.474;19.056;2022-11-15T04:57:02;100830.44;;;5.30;100.00
58769;BME280;44536;47.474;19.056;2022-11-15T05:00:23;100831.00;;;5.37;100.00
58769;BME280;44536;47.474;19.056;2022-11-15T05:03:44;100821.91;;;5.25;100.00
58769;BME280;44536;47.474;19.056;2022-11-15T05:07:23;100819.22;;;5.26;100.00
58769;BME280;44536;47.474;19.056;2022-11-15T05:10:44;100821.62;;;5.31;100.00
58769;BME280;44536;47.474;19.056;2022-11-15T05:14:04;100829.38;;;5.34;100.00
58769;BME280;44536;47.474;19.056;2022-11-15T05:17:25;100815.81;;;5.43;100.00
58769;BME280;44536;47.474;19.056;2022-11-15T05:20:45;100826.03;;;5.49;100.00
58769;BME280;44536;47.474;19.056;2022-11-15T05:24:06;100840.19;;;5.47;100.00
58769;BME280;44536;47.474;19.056;2022-11-15T05:27:26;100835.97;;;5.61;100.00
58769;BME280;44536;47.474;19.056;2022-11-15T05:30:46;100834.19;;;5.62;100.00
58769;BME280;44536;47.474;19.056;2022-11-15T05:34:06;100835.00;;;5.81;100.00
58769;BME280;44536;47.474;19.056;2022-11-15T05:37:28;100828.38;;;5.91;100.00
58769;BME280;44536;47.474;19.056;2022-11-15T05:40:49;100829.22;;;5.92;100.00
58769;BME280;44536;47.474;19.056;2022-11-15T05:44:10;100842.03;;;5.81;100.00
58769;BME280;44536;47.474;19.056;2022-11-15T05:47:31;100823.31;;;5.87;100.00
58769;BME280;44536;47.474;19.056;2022-11-15T05:50:54;100819.41;;;5.95;100.00
58769;BME280;44536;47.474;19.056;2022-11-15T05:54:15;100824.16;;;6.06;100.00
58769;BME280;44536;47.474;19.056;2022-11-15T05:57:37;100812.84;;;6.21;100.00
58769;BME280;44536;47.474;19.056;2022-11-15T06:00:57;100816.87;;;6.11;100.00
58769;BME280;44536;47.474;19.056;2022-11-15T06:04:18;100814.84;;;6.16;100.00
58769;BME280;44536;47.474;19.056;2022-11-15T06:07:38;100813.09;;;6.17;100.00
58769;BME280;44536;47.474;19.056;2022-11-15T06:11:03;100819.56;;;6.27;100.00
58769;BME280;44536;47.474;19.056;2022-11-15T06:14:23;100813.97;;;6.33;100.00
58769;BME280;44536;47.474;19.056;2022-11-15T06:17:44;100797.78;;;6.41;100.00
58769;BME280;44536;47.474;19.056;2022-11-15T06:21:04;100800.97;;;6.30;100.00
58769;BME280;44536;47.474;19.056;2022-11-15T06:24:25;100814.06;;;6.31;100.00
58769;BME280;44536;47.474;19.056;2022-11-15T06:27:50;100812.97;;;6.53;100.00
58769;BME280;44536;47.474;19.056;2022-11-15T06:31:11;100821.09;;;6.48;100.00
58769;BME280;44536;47.474;19.056;2022-11-15T06:34:31;100814.28;;;6.44;100.00
58769;BME280;44536;47.474;19.056;2022-11-15T06:37:51;100813.34;;;6.45;100.00
58769;BME280;44536;47.474;19.056;2022-11-15T06:41:12;100810.09;;;6.40;100.00
58769;BME280;44536;47.474;19.056;2022-11-15T06:44:33;100813.66;;;6.39;100.00
58769;BME280;44536;47.474;19.056;2022-11-15T06:47:53;100817.13;;;6.57;100.00
58769;BME280;44536;47.474;19.056;2022-11-15T06:51:14;100815.22;;;6.43;100.00
58769;BME280;44536;47.474;19.056;2022-11-15T06:54:34;100827.06;;;6.52;100.00
58769;BME280;44536;47.474;19.056;2022-11-15T06:57:54;100815.91;;;6.47;100.00
58769;BME280;44536;47.474;19.056;2022-11-15T07:01:14;100815.44;;;6.39;100.00
58769;BME280;44536;47.474;19.056;2022-11-15T07:04:35;100814.50;;;6.40;100.00
58769;BME280;44536;47.474;19.056;2022-11-15T07:07:57;100807.84;;;6.50;100.00
58769;BME280;44536;47.474;19.056;2022-11-15T07:11:17;100823.97;;;6.44;100.00
58769;BME280;44536;47.474;19.056;2022-11-15T07:14:38;100809.06;;;6.60;100.00
58769;BME280;44536;47.474;19.056;2022-11-15T07:18:02;100805.91;;;6.53;100.00
58769;BME280;44536;47.474;19.056;2022-11-15T07:21:22;100802.72;;;6.64;100.00
58769;BME280;44536;47.474;19.056;2022-11-15T07:24:47;100804.03;;;6.88;100.00
58769;BME280;44536;47.474;19.056;2022-11-15T07:28:07;100794.50;;;6.86;100.00
58769;BME280;44536;47.474;19.056;2022-11-15T07:31:27;100799.50;;;6.75;100.00
58769;BME280;44536;47.474;19.056;2022-11-15T07:34:48;100794.66;;;6.83;100.00
58769;BME280;44536;47.474;19.056;2022-11-15T07:38:08;100802.84;;;6.94;100.00
58769;BME280;44536;47.474;19.056;2022-11-15T07:41:28;100805.00;;;7.03;100.00
58769;BME280;44536;47.474;19.056;2022-11-15T07:44:49;100803.22;;;7.19;100.00
58769;BME280;44536;47.474;19.056;2022-11-15T07:48:10;100791.38;;;7.11;100.00
58769;BME280;44536;47.474;19.056;2022-11-15T07:51:30;100795.28;;;7.04;100.00
58769;BME280;44536;47.474;19.056;2022-11-15T07:54:50;100789.00;;;7.22;100.00
58769;BME280;44536;47.474;19.056;2022-11-15T07:58:11;100794.53;;;7.17;100.00
58769;BME280;44536;47.474;19.056;2022-11-15T08:01:32;100806.28;;;7.27;100.00
58769;BME280;44536;47.474;19.056;2022-11-15T08:04:53;100806.94;;;7.31;100.00
58769;BME280;44536;47.474;19.056;2022-11-15T08:08:13;100798.69;;;7.53;100.00
58769;BME280;44536;47.474;19.056;2022-11-15T08:11:33;100789.06;;;7.52;100.00
58769;BME280;44536;47.474;19.056;2022-11-15T08:14:54;100782.50;;;7.59;100.00
58769;BME280;44536;47.474;19.056;2022-11-15T08:18:15;100779.28;;;7.54;100.00
58769;BME280;44536;47.474;19.056;2022-11-15T08:21:36;100780.06;;;7.40;100.00
58769;BME280;44536;47.474;19.056;2022-11-15T08:24:57;100770.53;;;7.38;100.00
58769;BME280;44536;47.474;19.056;2022-11-15T08:28:17;100763.47;;;7.38;100.00
58769;BME280;44536;47.474;19.056;2022-11-15T08:31:39;100758.81;;;7.12;100.00
58769;BME280;44536;47.474;19.056;2022-11-15T08:35:00;100755.91;;;7.01;100.00
58769;BME280;44536;47.474;19.056;2022-11-15T08:38:22;100766.13;;;7.07;100.00
58769;BME280;44536;47.474;19.056;2022-11-15T08:41:42;100766.88;;;7.09;100.00
58769;BME280;44536;47.474;19.056;2022-11-15T08:45:04;100751.06;;;7.09;100.00
58769;BME280;44536;47.474;19.056;2022-11-15T08:48:25;100749.78;;;7.16;100.00
58769;BME280;44536;47.474;19.056;2022-11-15T08:51:46;100749.28;;;7.09;100.00
58769;BME280;44536;47.474;19.056;2022-11-15T08:55:06;100739.59;;;7.10;100.00
58769;BME280;44536;47.474;19.056;2022-11-15T08:58:27;100737.97;;;7.07;100.00
58769;BME280;44536;47.474;19.056;2022-11-15T09:01:48;100744.59;;;7.14;100.00
58769;BME280;44536;47.474;19.056;2022-11-15T09:05:09;100745.63;;;7.27;100.00
58769;BME280;44536;47.474;19.056;2022-11-15T09:08:29;100741.94;;;7.30;100.00
58769;BME280;44536;47.474;19.056;2022-11-15T09:12:07;100731.81;;;7.38;100.00
58769;BME280;44536;47.474;19.056;2022-11-15T09:15:28;100732.22;;;7.46;100.00
58769;BME280;44536;47.474;19.056;2022-11-15T09:18:48;100715.37;;;7.79;100.00
58769;BME280;44536;47.474;19.056;2022-11-15T09:22:09;100723.16;;;8.10;100.00
58769;BME280;44536;47.474;19.056;2022-11-15T09:25:29;100721.84;;;8.17;100.00
58769;BME280;44536;47.474;19.056;2022-11-15T09:28:50;100715.25;;;8.24;100.00
58769;BME280;44536;47.474;19.056;2022-11-15T09:32:11;100709.84;;;7.97;100.00
58769;BME280;44536;47.474;19.056;2022-11-15T09:35:31;100717.72;;;7.83;100.00
58769;BME280;44536;47.474;19.056;2022-11-15T09:38:52;100713.41;;;7.96;100.00
58769;BME280;44536;47.474;19.056;2022-11-15T09:49:26;100709.53;;;7.88;100.00
58769;BME280;44536;47.474;19.056;2022-11-15T09:52:32;100703.62;;;7.98;100.00
58769;BME280;44536;47.474;19.056;2022-11-15T09:55:40;100713.19;;;8.15;100.00
58769;BME280;44536;47.474;19.056;2022-11-15T09:58:50;100707.59;;;8.06;100.00
58769;BME280;44536;47.474;19.056;2022-11-15T10:04:58;100701.66;;;8.02;100.00
58769;BME280;44536;47.474;19.056;2022-11-15T10:08:03;100702.13;;;8.09;100.00
58769;BME280;44536;47.474;19.056;2022-11-15T10:11:14;100699.31;;;8.12;100.00
58769;BME280;44536;47.474;19.056;2022-11-15T10:14:37;100692.03;;;8.01;100.00
58769;BME280;44536;47.474;19.056;2022-11-15T10:17:50;100684.28;;;7.98;100.00
58769;BME280;44536;47.474;19.056;2022-11-15T10:20:57;100680.31;;;7.91;100.00
58769;BME280;44536;47.474;19.056;2022-11-15T10:24:00;100667.47;;;7.85;100.00
58769;BME280;44536;47.474;19.056;2022-11-15T10:27:07;100660.78;;;7.93;100.00
58769;BME280;44536;47.474;19.056;2022-11-15T10:30:11;100667.87;;;7.93;100.00
58769;BME280;44536;47.474;19.056;2022-11-15T10:33:25;100663.31;;;7.81;100.00
58769;BME280;44536;47.474;19.056;2022-11-15T10:36:27;100662.28;;;7.83;100.00
58769;BME280;44536;47.474;19.056;2022-11-15T10:39:30;100647.09;;;7.87;100.00
58769;BME280;44536;47.474;19.056;2022-11-15T10:42:32;100644.50;;;8.01;100.00
58769;BME280;44536;47.474;19.056;2022-11-15T10:45:34;100649.97;;;8.12;100.00
58769;BME280;44536;47.474;19.056;2022-11-15T10:48:37;100641.75;;;8.03;100.00
58769;BME280;44536;47.474;19.056;2022-11-15T10:51:48;100632.41;;;7.97;100.00
58769;BME280;44536;47.474;19.056;2022-11-15T10:54:56;100636.56;;;8.01;100.00
58769;BME280;44536;47.474;19.056;2022-11-15T10:58:21;100632.22;;;8.00;100.00
58769;BME280;44536;47.474;19.056;2022-11-15T11:01:23;100619.22;;;7.97;100.00
58769;BME280;44536;47.474;19.056;2022-11-15T11:04:25;100619.03;;;8.00;100.00
58769;BME280;44536;47.474;19.056;2022-11-15T11:07:31;100611.56;;;7.92;100.00
58769;BME280;44536;47.474;19.056;2022-11-15T11:10:34;100612.50;;;7.91;100.00
58769;BME280;44536;47.474;19.056;2022-11-15T11:13:52;100603.44;;;7.81;100.00
58769;BME280;44536;47.474;19.056;2022-11-15T11:20:02;100599.69;;;7.71;100.00
58769;BME280;44536;47.474;19.056;2022-11-15T11:23:17;100591.41;;;7.77;100.00
58769;BME280;44536;47.474;19.056;2022-11-15T11:36:46;100589.87;;;7.59;100.00
58769;BME280;44536;47.474;19.056;2022-11-15T11:40:00;100583.84;;;7.57;100.00
58769;BME280;44536;47.474;19.056;2022-11-15T11:49:44;100570.97;;;7.22;100.00
58769;BME280;44536;47.474;19.056;2022-11-15T11:55:52;100564.25;;;7.31;100.00
58769;BME280;44536;47.474;19.056;2022-11-15T11:58:57;100563.81;;;7.39;100.00
58769;BME280;44536;47.474;19.056;2022-11-15T12:02:11;100561.44;;;7.34;100.00
58769;BME280;44536;47.474;19.056;2022-11-15T12:15:04;100534.06;;;7.51;100.00
58769;BME280;44536;47.474;19.056;2022-11-15T12:18:12;100531.44;;;7.51;100.00
58769;BME280;44536;47.474;19.056;2022-11-15T12:21:20;100524.63;;;7.47;100.00
58769;BME280;44536;47.474;19.056;2022-11-15T12:24:32;100525.13;;;7.53;100.00
58769;BME280;44536;47.474;19.056;2022-11-15T12:27:37;100516.62;;;7.48;100.00
58769;BME280;44536;47.474;19.056;2022-11-15T12:30:45;100516.44;;;7.51;100.00
58769;BME280;44536;47.474;19.056;2022-11-15T12:33:48;100510.12;;;7.54;100.00
58769;BME280;44536;47.474;19.056;2022-11-15T12:36:51;100513.53;;;7.56;100.00
58769;BME280;44536;47.474;19.056;2022-11-15T12:46:20;100498.34;;;7.45;100.00
58769;BME280;44536;47.474;19.056;2022-11-15T12:52:25;100493.91;;;7.46;100.00
58769;BME280;44536;47.474;19.056;2022-11-15T12:55:32;100479.94;;;7.29;100.00
58769;BME280;44536;47.474;19.056;2022-11-15T13:04:47;100484.13;;;6.75;100.00
58769;BME280;44536;47.474;19.056;2022-11-15T13:10:51;100482.28;;;6.61;100.00
58769;BME280;44536;47.474;19.056;2022-11-15T13:13:53;100491.06;;;6.76;100.00
58769;BME280;44536;47.474;19.056;2022-11-15T13:16:58;100483.97;;;6.92;100.00
58769;BME280;44536;47.474;19.056;2022-11-15T13:20:08;100485.38;;;6.98;100.00
58769;BME280;44536;47.474;19.056;2022-11-15T13:23:16;100484.72;;;6.94;100.00
58769;BME280;44536;47.474;19.056;2022-11-15T13:26:19;100481.19;;;7.10;100.00
58769;BME280;44536;47.474;19.056;2022-11-15T13:29:22;100477.22;;;7.03;100.00
58769;BME280;44536;47.474;19.056;2022-11-15T13:32:24;100461.56;;;7.00;100.00
58769;BME280;44536;47.474;19.056;2022-11-15T13:35:27;100465.50;;;6.92;100.00
58769;BME280;44536;47.474;19.056;2022-11-15T13:38:31;100457.91;;;7.02;100.00
58769;BME280;44536;47.474;19.056;2022-11-15T13:41:35;100454.03;;;6.93;100.00
58769;BME280;44536;47.474;19.056;2022-11-15T13:44:37;100453.87;;;6.81;100.00
58769;BME280;44536;47.474;19.056;2022-11-15T13:47:39;100450.81;;;6.88;100.00
58769;BME280;44536;47.474;19.056;2022-11-15T13:50:41;100438.78;;;6.98;100.00
58769;BME280;44536;47.474;19.056;2022-11-15T13:53:45;100429.75;;;7.03;100.00
58769;BME280;44536;47.474;19.056;2022-11-15T13:56:49;100436.25;;;6.97;100.00
58769;BME280;44536;47.474;19.056;2022-11-15T13:59:54;100441.13;;;6.89;100.00
58769;BME280;44536;47.474;19.056;2022-11-15T14:03:34;100435.84;;;6.75;100.00
58769;BME280;44536;47.474;19.056;2022-11-15T14:06:28;100431.19;;;6.78;100.00
58769;BME280;44536;47.474;19.056;2022-11-15T14:12:35;100422.34;;;6.65;100.00
58769;BME280;44536;47.474;19.056;2022-11-15T14:15:38;100426.38;;;6.56;100.00
58769;BME280;44536;47.474;19.056;2022-11-15T14:18:51;100426.06;;;6.47;100.00
58769;BME280;44536;47.474;19.056;2022-11-15T14:31:24;100414.09;;;6.41;100.00
58769;BME280;44536;47.474;19.056;2022-11-15T14:34:27;100403.59;;;6.55;100.00
58769;BME280;44536;47.474;19.056;2022-11-15T14:37:32;100396.13;;;6.48;100.00
58769;BME280;44536;47.474;19.056;2022-11-15T14:40:36;100389.00;;;6.50;100.00
58769;BME280;44536;47.474;19.056;2022-11-15T14:43:38;100392.84;;;6.44;100.00
58769;BME280;44536;47.474;19.056;2022-11-15T14:46:40;100384.25;;;6.41;100.00
58769;BME280;44536;47.474;19.056;2022-11-15T14:49:43;100384.94;;;6.44;100.00
58769;BME280;44536;47.474;19.056;2022-11-15T14:52:45;100379.00;;;6.41;100.00
58769;BME280;44536;47.474;19.056;2022-11-15T14:55:47;100377.22;;;6.41;100.00
58769;BME280;44536;47.474;19.056;2022-11-15T14:58:49;100379.09;;;6.39;100.00
58769;BME280;44536;47.474;19.056;2022-11-15T15:01:51;100381.56;;;6.26;100.00
58769;BME280;44536;47.474;19.056;2022-11-15T15:04:53;100377.62;;;6.19;100.00
58769;BME280;44536;47.474;19.056;2022-11-15T15:07:56;100384.50;;;6.22;100.00
58769;BME280;44536;47.474;19.056;2022-11-15T15:10:58;100374.44;;;6.28;100.00
58769;BME280;44536;47.474;19.056;2022-11-15T15:14:00;100380.38;;;6.32;100.00
58769;BME280;44536;47.474;19.056;2022-11-15T15:17:03;100371.44;;;6.35;100.00
58769;BME280;44536;47.474;19.056;2022-11-15T15:20:06;100370.03;;;6.29;100.00
58769;BME280;44536;47.474;19.056;2022-11-15T15:23:15;100365.25;;;6.36;100.00
58769;BME280;44536;47.474;19.056;2022-11-15T15:26:18;100354.72;;;6.36;100.00
58769;BME280;44536;47.474;19.056;2022-11-15T15:29:20;100356.91;;;6.43;100.00
58769;BME280;44536;47.474;19.056;2022-11-15T15:32:23;100360.81;;;6.36;100.00
58769;BME280;44536;47.474;19.056;2022-11-15T15:35:27;100362.84;;;6.47;100.00
58769;BME280;44536;47.474;19.056;2022-11-15T15:38:30;100371.09;;;6.41;100.00
58769;BME280;44536;47.474;19.056;2022-11-15T15:41:33;100372.91;;;6.54;100.00
58769;BME280;44536;47.474;19.056;2022-11-15T15:44:35;100370.66;;;6.48;100.00
58769;BME280;44536;47.474;19.056;2022-11-15T15:47:37;100372.25;;;6.51;100.00
58769;BME280;44536;47.474;19.056;2022-11-15T15:50:40;100372.69;;;6.43;100.00
58769;BME280;44536;47.474;19.056;2022-11-15T15:53:44;100363.81;;;6.60;100.00
58769;BME280;44536;47.474;19.056;2022-11-15T15:56:47;100356.94;;;6.57;100.00
58769;BME280;44536;47.474;19.056;2022-11-15T15:59:55;100357.03;;;6.56;100.00
58769;BME280;44536;47.474;19.056;2022-11-15T16:02:58;100350.25;;;6.52;100.00
58769;BME280;44536;47.474;19.056;2022-11-15T16:06:00;100346.84;;;6.50;100.00
58769;BME280;44536;47.474;19.056;2022-11-15T16:09:02;100347.69;;;6.50;100.00
58769;BME280;44536;47.474;19.056;2022-11-15T16:12:21;100357.38;;;6.50;100.00
58769;BME280;44536;47.474;19.056;2022-11-15T16:15:24;100349.19;;;6.40;100.00
58769;BME280;44536;47.474;19.056;2022-11-15T16:18:26;100356.06;;;6.43;100.00
58769;BME280;44536;47.474;19.056;2022-11-15T16:21:28;100349.88;;;6.58;100.00
58769;BME280;44536;47.474;19.056;2022-11-15T16:24:31;100354.22;;;6.59;100.00
58769;BME280;44536;47.474;19.056;2022-11-15T16:27:34;100351.81;;;6.40;100.00
58769;BME280;44536;47.474;19.056;2022-11-15T16:30:39;100340.56;;;6.52;100.00
58769;BME280;44536;47.474;19.056;2022-11-15T16:33:41;100344.06;;;6.67;100.00
58769;BME280;44536;47.474;19.056;2022-11-15T16:36:43;100336.81;;;6.71;100.00
58769;BME280;44536;47.474;19.056;2022-11-15T16:39:45;100338.13;;;6.63;100.00
58769;BME280;44536;47.474;19.056;2022-11-15T16:42:47;100347.81;;;6.63;100.00
58769;BME280;44536;47.474;19.056;2022-11-15T16:45:49;100340.59;;;6.67;100.00
58769;BME280;44536;47.474;19.056;2022-11-15T16:48:52;100330.41;;;6.60;100.00
58769;BME280;44536;47.474;19.056;2022-11-15T16:51:57;100324.87;;;6.65;100.00
58769;BME280;44536;47.474;19.056;2022-11-15T16:54:59;100325.72;;;6.66;100.00
58769;BME280;44536;47.474;19.056;2022-11-15T16:58:01;100324.66;;;6.54;100.00
58769;BME280;44536;47.474;19.056;2022-11-15T17:01:03;100322.50;;;6.60;100.00
58769;BME280;44536;47.474;19.056;2022-11-15T17:04:08;100322.91;;;6.69;100.00
58769;BME280;44536;47.474;19.056;2022-11-15T17:07:14;100323.34;;;6.61;100.00
58769;BME280;44536;47.474;19.056;2022-11-15T17:10:16;100316.94;;;6.51;100.00
58769;BME280;44536;47.474;19.056;2022-11-15T17:13:19;100321.94;;;6.55;100.00
58769;BME280;44536;47.474;19.056;2022-11-15T17:16:21;100314.87;;;6.56;100.00
58769;BME280;44536;47.474;19.056;2022-11-15T17:19:23;100317.22;;;6.60;100.00
58769;BME280;44536;47.474;19.056;2022-11-15T17:22:25;100311.31;;;6.71;100.00
58769;BME280;44536;47.474;19.056;2022-11-15T17:25:27;100307.56;;;6.75;100.00
58769;BME280;44536;47.474;19.056;2022-11-15T17:28:30;100300.69;;;6.73;100.00
58769;BME280;44536;47.474;19.056;2022-11-15T17:31:36;100303.69;;;6.67;100.00
58769;BME280;44536;47.474;19.056;2022-11-15T17:34:38;100297.94;;;6.60;100.00
58769;BME280;44536;47.474;19.056;2022-11-15T17:37:41;100297.91;;;6.46;100.00
58769;BME280;44536;47.474;19.056;2022-11-15T17:40:43;100302.81;;;6.52;100.00
58769;BME280;44536;47.474;19.056;2022-11-15T17:43:45;100287.22;;;6.63;100.00
58769;BME280;44536;47.474;19.056;2022-11-15T17:46:47;100281.09;;;6.77;100.00
58769;BME280;44536;47.474;19.056;2022-11-15T17:49:49;100275.81;;;6.77;100.00
58769;BME280;44536;47.474;19.056;2022-11-15T17:52:51;100272.22;;;6.78;100.00
58769;BME280;44536;47.474;19.056;2022-11-15T17:55:54;100270.09;;;6.56;100.00
58769;BME280;44536;47.474;19.056;2022-11-15T17:58:57;100260.41;;;6.56;100.00
58769;BME280;44536;47.474;19.056;2022-11-15T18:02:00;100262.00;;;6.73;100.00
58769;BME280;44536;47.474;19.056;2022-11-15T18:05:03;100257.94;;;6.53;100.00
58769;BME280;44536;47.474;19.056;2022-11-15T18:08:05;100254.75;;;6.48;100.00
58769;BME280;44536;47.474;19.056;2022-11-15T18:11:12;100258.22;;;6.49;100.00
58769;BME280;44536;47.474;19.056;2022-11-15T18:14:15;100252.22;;;6.47;100.00